Time;durP1;ratioP1;P1;durP2;ratioP2;P2;SDS_P1;SDS_P2;PMS_P1;PMS_P2;Temp;Humidity;BMP_temperature;BMP_pressure;BME280_temperature;BME280_humidity;BME280_pressure;Samples;Min_cycle;Max_cycle;Signal;HPM_P1;HPM_P2
2021/01/16 00:02:01;;;;;;;36.28;17.70;;;3.80;95.80;;;;;;5028288;28;20025;-82
2021/01/16 00:04:27;;;;;;;29.05;16.23;;;3.80;95.70;;;;;;5049482;28;20462;-82
2021/01/16 00:06:53;;;;;;;28.15;17.25;;;3.80;95.80;;;;;;5051659;28;20021;-82
2021/01/16 00:09:19;;;;;;;32.92;17.48;;;3.80;96.00;;;;;;5052238;28;20017;-82
2021/01/16 00:11:47;;;;;;;31.45;15.27;;;3.80;96.00;;;;;;5051109;28;20029;-81
2021/01/16 00:14:13;;;;;;;29.33;15.05;;;3.80;96.00;;;;;;5051633;28;20504;-79
2021/01/16 00:16:39;;;;;;;27.38;15.90;;;3.80;95.50;;;;;;5051871;28;20036;-82
2021/01/16 00:19:04;;;;;;;30.77;13.52;;;3.90;95.50;;;;;;5052872;28;20238;-84
2021/01/16 00:21:30;;;;;;;23.92;12.02;;;4.10;95.10;;;;;;5039029;28;20028;-83
2021/01/16 00:23:55;;;;;;;29.35;12.63;;;4.20;94.70;;;;;;5059005;28;20021;-82
2021/01/16 00:26:21;;;;;;;32.13;14.10;;;4.30;94.60;;;;;;5047165;28;20084;-83
2021/01/16 00:28:47;;;;;;;26.63;11.75;;;4.30;94.80;;;;;;5043259;28;20385;-83
2021/01/16 00:31:12;;;;;;;25.90;12.07;;;4.30;94.80;;;;;;5052528;28;20582;-79
2021/01/16 00:33:38;;;;;;;34.50;15.90;;;4.30;94.80;;;;;;5049101;28;20489;-79
2021/01/16 00:36:05;;;;;;;16.35;10.00;;;4.30;94.20;;;;;;5052423;28;20482;-82
2021/01/16 00:38:37;;;;;;;19.85;9.55;;;4.40;93.70;;;;;;5048546;28;20073;-81
2021/01/16 00:41:03;;;;;;;17.27;8.98;;;4.60;93.30;;;;;;5043370;28;20115;-82
2021/01/16 00:43:29;;;;;;;14.82;8.25;;;4.70;93.30;;;;;;5032012;28;20112;-79
2021/01/16 00:45:55;;;;;;;14.23;8.98;;;4.70;93.20;;;;;;5051820;28;20033;-82
2021/01/16 00:48:22;;;;;;;19.95;9.98;;;4.70;92.70;;;;;;5052422;28;20017;-82
2021/01/16 00:50:50;;;;;;;17.15;10.63;;;4.70;93.70;;;;;;5051598;28;20037;-81
2021/01/16 00:53:17;;;;;;;21.42;9.52;;;4.80;93.00;;;;;;5052390;28;20486;-80
2021/01/16 00:55:43;;;;;;;12.45;7.60;;;4.80;93.10;;;;;;5045995;28;20040;-82
2021/01/16 00:58:18;;;;;;;13.38;8.18;;;4.80;92.80;;;;;;5041643;28;20033;-79
2021/01/16 01:00:45;;;;;;;18.42;9.50;;;4.80;93.30;;;;;;5051797;28;20386;-80
2021/01/16 01:03:21;;;;;;;17.95;9.18;;;4.80;93.20;;;;;;5050564;28;20523;-82
2021/01/16 01:05:47;;;;;;;19.88;8.02;;;4.80;93.30;;;;;;5047571;28;20103;-82
2021/01/16 01:08:13;;;;;;;;;;;4.80;93.10;;;;;;5054800;28;20030;-82
2021/01/16 01:10:44;;;;;;;18.33;8.65;;;4.90;93.40;;;;;;5060186;28;19931;-79
2021/01/16 01:13:10;;;;;;;14.25;8.68;;;4.90;93.20;;;;;;5057548;28;20374;-83
2021/01/16 01:15:39;;;;;;;25.10;10.40;;;5.00;93.30;;;;;;5061121;28;20112;-83
2021/01/16 01:18:05;;;;;;;18.60;10.57;;;5.00;93.30;;;;;;5049362;28;20017;-84
2021/01/16 01:20:31;;;;;;;20.60;11.13;;;5.10;93.20;;;;;;5053547;28;20085;-83
2021/01/16 01:22:58;;;;;;;25.02;12.20;;;5.20;93.20;;;;;;5052174;28;20044;-85
2021/01/16 01:25:24;;;;;;;22.45;11.82;;;5.30;93.20;;;;;;5049674;28;20091;-82
2021/01/16 01:27:52;;;;;;;25.55;12.77;;;5.30;93.20;;;;;;5045185;28;20029;-82
2021/01/16 01:30:20;;;;;;;26.00;13.10;;;5.40;93.40;;;;;;5047810;28;20041;-83
2021/01/16 01:32:46;;;;;;;26.48;13.27;;;5.30;93.20;;;;;;5048688;28;20025;-80
2021/01/16 01:35:13;;;;;;;28.13;12.57;;;5.40;93.30;;;;;;5041502;28;20105;-80
2021/01/16 01:37:42;;;;;;;29.15;12.73;;;5.40;93.30;;;;;;5043690;28;20366;-84
2021/01/16 01:40:10;;;;;;;21.42;12.38;;;5.40;93.50;;;;;;5044995;28;20022;-82
2021/01/16 01:42:36;;;;;;;24.63;13.00;;;5.40;93.40;;;;;;5040043;28;20453;-82
2021/01/16 01:45:03;;;;;;;25.23;13.45;;;5.40;93.80;;;;;;5050438;28;20037;-80
2021/01/16 01:47:29;;;;;;;28.02;15.70;;;5.40;93.50;;;;;;5043559;28;20038;-81
2021/01/16 01:49:55;;;;;;;35.80;12.73;;;5.40;93.60;;;;;;5049937;28;20036;-82
2021/01/16 01:52:20;;;;;;;;;;;5.40;93.50;;;;;;5050069;28;20033;-82
2021/01/16 01:54:50;;;;;;;25.23;12.82;;;5.40;94.10;;;;;;5050802;28;20015;-81
2021/01/16 01:57:19;;;;;;;27.83;14.45;;;5.40;94.10;;;;;;5040682;28;20036;-83
2021/01/16 01:59:46;;;;;;;28.35;14.90;;;5.30;94.50;;;;;;5039932;28;20167;-83
2021/01/16 02:02:12;;;;;;;26.77;15.02;;;5.30;95.00;;;;;;5049397;28;20044;-83
2021/01/16 02:04:40;;;;;;;36.75;16.33;;;5.30;95.40;;;;;;5050183;28;20025;-81
2021/01/16 02:07:27;;;;;;;34.20;18.00;;;5.20;96.10;;;;;;5043777;28;20017;-82
2021/01/16 02:09:54;;;;;;;;;;;5.20;96.20;;;;;;5037840;28;20505;-80
2021/01/16 02:12:22;;;;;;;38.88;17.30;;;5.10;96.60;;;;;;5051142;28;20007;-80
2021/01/16 02:15:11;;;;;;;38.97;17.80;;;5.10;96.50;;;;;;5045335;28;20297;-79
2021/01/16 02:17:41;;;;;;;41.95;20.02;;;5.10;96.70;;;;;;5048890;28;20612;-79
2021/01/16 02:20:19;;;;;;;39.00;19.95;;;5.10;96.70;;;;;;5049633;28;20025;-79
2021/01/16 02:23:11;;;;;;;35.03;19.08;;;5.10;97.00;;;;;;5050063;28;20025;-82
2021/01/16 02:25:42;;;;;;;46.00;20.25;;;5.10;97.10;;;;;;5032688;28;20041;-79
2021/01/16 02:28:10;;;;;;;38.40;19.98;;;5.00;97.20;;;;;;5049528;28;20024;-79
2021/01/16 02:30:39;;;;;;;42.95;18.42;;;5.00;97.10;;;;;;5047735;28;20478;-78
2021/01/16 02:33:08;;;;;;;40.33;17.88;;;5.00;97.20;;;;;;5048708;28;20068;-81
2021/01/16 02:35:45;;;;;;;45.50;21.52;;;5.00;97.10;;;;;;5047904;28;20120;-80
2021/01/16 02:38:22;;;;;;;;;;;5.00;97.50;;;;;;5049655;28;20532;-80
2021/01/16 02:40:59;;;;;;;54.67;20.90;;;5.00;97.50;;;;;;5043066;28;19916;-80
2021/01/16 02:43:31;;;;;;;;;;;5.00;97.50;;;;;;5050812;28;20051;-80
2021/01/16 02:46:07;;;;;;;40.65;19.25;;;5.00;97.60;;;;;;5032240;28;20285;-82
2021/01/16 02:48:57;;;;;;;39.03;18.05;;;4.90;97.40;;;;;;5046706;28;20108;-77
2021/01/16 02:51:29;;;;;;;32.17;17.02;;;4.90;97.30;;;;;;5039343;28;20041;-79
2021/01/16 02:53:55;;;;;;;39.72;18.17;;;4.90;97.30;;;;;;5050622;28;20079;-79
2021/01/16 02:56:23;;;;;;;;;;;4.90;97.60;;;;;;5043027;28;20045;-79
2021/01/16 02:58:49;;;;;;;36.85;17.52;;;4.90;97.30;;;;;;5060937;28;19920;-78
2021/01/16 03:01:14;;;;;;;43.90;17.00;;;4.90;97.40;;;;;;5068396;28;20025;-84
2021/01/16 03:03:40;;;;;;;30.63;16.88;;;4.80;97.30;;;;;;5045648;28;20025;-77
2021/01/16 03:06:06;;;;;;;44.42;18.90;;;4.80;97.50;;;;;;5033947;28;20032;-78
2021/01/16 03:08:33;;;;;;;38.47;16.83;;;4.80;97.70;;;;;;5045307;28;20373;-78
2021/01/16 03:10:59;;;;;;;28.55;17.02;;;4.80;97.30;;;;;;5050056;28;20057;-80
2021/01/16 03:13:26;;;;;;;37.22;18.23;;;4.80;97.60;;;;;;5048718;28;20061;-79
2021/01/16 03:15:52;;;;;;;30.55;16.65;;;4.70;97.60;;;;;;5032692;28;20079;-76
2021/01/16 03:18:23;;;;;;;31.70;17.30;;;4.70;97.70;;;;;;5047337;28;20021;-77
2021/01/16 03:20:49;;;;;;;35.58;17.23;;;4.70;97.80;;;;;;5057260;28;20032;-81
2021/01/16 03:23:15;;;;;;;24.85;13.93;;;4.70;97.80;;;;;;5056992;28;20112;-80
2021/01/16 03:25:43;;;;;;;28.55;14.68;;;4.70;97.60;;;;;;5056448;28;20064;-76
2021/01/16 03:28:09;;;;;;;43.88;17.48;;;4.70;97.90;;;;;;5056485;28;20036;-80
2021/01/16 03:30:34;;;;;;;37.83;17.90;;;4.60;98.10;;;;;;5051605;28;20063;-79
2021/01/16 03:33:00;;;;;;;30.73;16.77;;;4.60;98.50;;;;;;5047406;28;20037;-82
2021/01/16 03:35:26;;;;;;;37.33;16.08;;;4.60;98.70;;;;;;5052985;28;20056;-81
2021/01/16 03:37:54;;;;;;;30.52;15.20;;;4.50;98.30;;;;;;5053264;28;20025;-80
2021/01/16 03:40:20;;;;;;;32.55;16.48;;;4.50;98.40;;;;;;5052489;28;20068;-81
2021/01/16 03:42:46;;;;;;;34.92;15.48;;;4.50;98.50;;;;;;5053610;28;20106;-82
2021/01/16 03:45:19;;;;;;;36.45;17.38;;;4.50;98.40;;;;;;5047273;28;20017;-79
2021/01/16 03:47:45;;;;;;;34.90;16.85;;;4.50;98.40;;;;;;5045799;28;20036;-81
2021/01/16 03:50:10;;;;;;;31.58;15.90;;;4.50;98.40;;;;;;5052479;28;20029;-80
2021/01/16 03:52:39;;;;;;;30.70;14.88;;;4.50;98.50;;;;;;5072179;28;20043;-82
2021/01/16 03:55:09;;;;;;;38.50;17.00;;;4.50;98.50;;;;;;5064895;28;20040;-81
2021/01/16 03:57:36;;;;;;;35.35;15.80;;;4.40;98.60;;;;;;5042980;28;20035;-79
2021/01/16 04:00:07;;;;;;;31.83;15.25;;;4.40;98.70;;;;;;5051158;28;20025;-78
2021/01/16 04:02:33;;;;;;;34.60;14.20;;;4.40;98.60;;;;;;5051980;28;20032;-80
2021/01/16 04:04:58;;;;;;;27.63;13.27;;;4.40;98.40;;;;;;5051979;28;20037;-81
2021/01/16 04:07:24;;;;;;;33.60;15.13;;;4.40;98.60;;;;;;5052480;28;20108;-79
2021/01/16 04:09:50;;;;;;;35.53;15.95;;;4.40;98.60;;;;;;5052611;28;20473;-79
2021/01/16 04:12:15;;;;;;;33.10;13.40;;;4.40;98.60;;;;;;5035208;28;20375;-78
2021/01/16 04:14:41;;;;;;;25.15;14.38;;;4.40;98.40;;;;;;5032934;28;20021;-77
2021/01/16 04:17:08;;;;;;;26.67;15.27;;;4.40;98.40;;;;;;5047680;28;20024;-77
2021/01/16 04:19:34;;;;;;;32.45;13.90;;;4.30;98.50;;;;;;5053189;28;20040;-77
2021/01/16 04:22:00;;;;;;;;;;;4.40;98.40;;;;;;5036862;28;20370;-77
2021/01/16 04:24:26;;;;;;;34.70;14.75;;;4.40;98.70;;;;;;5052458;28;20003;-79
2021/01/16 04:26:53;;;;;;;33.85;14.40;;;4.40;99.00;;;;;;5052342;28;20028;-78
2021/01/16 04:29:18;;;;;;;;;;;4.40;98.70;;;;;;5052304;28;20036;-76
2021/01/16 04:31:44;;;;;;;28.60;14.05;;;4.40;98.60;;;;;;5053005;28;19909;-77
2021/01/16 04:34:10;;;;;;;29.00;14.15;;;4.40;98.70;;;;;;5051658;28;20025;-78
2021/01/16 04:36:35;;;;;;;35.17;13.60;;;4.40;99.00;;;;;;5044941;28;20391;-77
2021/01/16 04:39:02;;;;;;;24.05;12.95;;;4.40;98.70;;;;;;5033157;28;20025;-78
2021/01/16 04:41:30;;;;;;;29.65;12.90;;;4.40;98.90;;;;;;5051653;28;20028;-77
2021/01/16 04:43:56;;;;;;;31.90;14.30;;;4.40;98.90;;;;;;5070058;28;20010;-79
2021/01/16 04:46:22;;;;;;;33.30;15.27;;;4.40;99.10;;;;;;5067965;28;20025;-76
2021/01/16 04:48:57;;;;;;;29.25;14.30;;;4.50;99.10;;;;;;5053399;28;20478;-78
2021/01/16 04:51:24;;;;;;;25.38;12.88;;;4.50;99.10;;;;;;5052406;28;20112;-78
2021/01/16 04:53:52;;;;;;;29.58;14.65;;;4.50;98.90;;;;;;5035081;28;20140;-78
2021/01/16 04:56:19;;;;;;;29.10;13.60;;;4.60;99.20;;;;;;5052574;28;20051;-78
2021/01/16 04:58:44;;;;;;;29.30;14.38;;;4.60;99.00;;;;;;5046052;28;20083;-78
2021/01/16 05:01:10;;;;;;;28.08;13.98;;;4.60;99.20;;;;;;5046485;28;20029;-78
2021/01/16 05:03:41;;;;;;;23.27;14.05;;;4.70;99.10;;;;;;5050761;28;20500;-78
2021/01/16 05:06:12;;;;;;;29.20;13.88;;;4.70;99.10;;;;;;5034049;28;20551;-79
2021/01/16 05:08:40;;;;;;;30.45;15.68;;;4.70;99.00;;;;;;5049958;28;20028;-78
2021/01/16 05:11:24;;;;;;;26.63;13.93;;;4.80;99.20;;;;;;5033351;28;20063;-79
2021/01/16 05:14:17;;;;;;;25.58;14.90;;;4.80;99.30;;;;;;5037391;28;20028;-77
2021/01/16 05:16:51;;;;;;;34.97;14.95;;;4.80;99.40;;;;;;5042111;28;20048;-81
2021/01/16 05:19:20;;;;;;;28.88;14.43;;;4.80;99.60;;;;;;5051603;28;20053;-83
2021/01/16 05:21:46;;;;;;;27.05;13.70;;;4.90;99.60;;;;;;5050311;28;20104;-80
2021/01/16 05:24:14;;;;;;;26.13;14.63;;;4.90;99.60;;;;;;5050585;28;20120;-79
2021/01/16 05:27:01;;;;;;;27.42;13.45;;;5.00;99.70;;;;;;5050614;28;20040;-81
2021/01/16 05:29:29;;;;;;;29.13;14.02;;;5.00;99.70;;;;;;5039916;28;20017;-82
2021/01/16 05:31:56;;;;;;;24.73;13.98;;;5.10;99.80;;;;;;5033171;28;20025;-80
2021/01/16 05:34:23;;;;;;;21.77;12.43;;;5.10;99.80;;;;;;5050868;28;20086;-81
2021/01/16 05:36:50;;;;;;;29.50;13.35;;;5.20;99.90;;;;;;5029861;28;20524;-79
2021/01/16 05:39:18;;;;;;;28.08;13.52;;;5.20;99.90;;;;;;5049671;28;20024;-82
2021/01/16 05:41:45;;;;;;;28.38;14.40;;;5.30;99.90;;;;;;5049551;28;20029;-80
2021/01/16 05:44:11;;;;;;;28.92;12.93;;;5.30;99.90;;;;;;5051194;28;20040;-82
2021/01/16 05:46:37;;;;;;;23.88;13.35;;;5.30;99.90;;;;;;5049185;28;20024;-80
2021/01/16 05:49:04;;;;;;;32.30;14.57;;;5.40;99.90;;;;;;5041371;28;20459;-80
2021/01/16 05:51:30;;;;;;;26.30;14.25;;;5.40;99.90;;;;;;5045276;28;20048;-81
2021/01/16 05:53:59;;;;;;;;;;;5.40;99.90;;;;;;5051263;28;20024;-81
2021/01/16 05:56:28;;;;;;;24.52;12.02;;;5.50;99.90;;;;;;5050873;28;20377;-81
2021/01/16 05:58:54;;;;;;;28.55;12.75;;;5.50;99.90;;;;;;5049223;28;20458;-82
2021/01/16 06:01:24;;;;;;;24.58;12.07;;;5.50;99.90;;;;;;5050108;28;20056;-81
2021/01/16 06:03:55;;;;;;;25.42;11.82;;;5.60;99.90;;;;;;5050144;28;20056;-78
2021/01/16 06:06:21;;;;;;;25.60;12.73;;;5.60;99.90;;;;;;5036246;28;20075;-83
2021/01/16 06:08:52;;;;;;;23.13;11.80;;;5.60;99.90;;;;;;5043169;28;20112;-81
2021/01/16 06:11:18;;;;;;;23.50;11.70;;;5.70;99.90;;;;;;5048279;28;20033;-82
2021/01/16 06:13:47;;;;;;;24.65;10.93;;;5.60;99.90;;;;;;5050182;28;20087;-81
2021/01/16 06:16:17;;;;;;;24.30;10.48;;;5.70;99.90;;;;;;5048785;28;20041;-81
2021/01/16 06:18:48;;;;;;;20.95;9.93;;;5.70;99.90;;;;;;5029424;28;20018;-80
2021/01/16 06:21:23;;;;;;;20.85;9.35;;;5.80;99.90;;;;;;5049109;28;20044;-81
2021/01/16 06:23:53;;;;;;;16.70;8.73;;;5.80;99.90;;;;;;5050332;28;20478;-80
2021/01/16 06:26:20;;;;;;;15.73;8.00;;;6.00;99.90;;;;;;5050562;28;20025;-81
2021/01/16 06:29:02;;;;;;;16.45;7.63;;;6.00;99.90;;;;;;5057746;28;20041;-82
2021/01/16 06:31:32;;;;;;;13.93;7.25;;;6.10;99.90;;;;;;5035298;28;20030;-82
2021/01/16 06:34:06;;;;;;;13.18;6.80;;;6.20;99.90;;;;;;5031046;28;20017;-82
2021/01/16 06:36:33;;;;;;;10.82;6.18;;;6.20;99.90;;;;;;5030665;28;20029;-81
2021/01/16 06:39:02;;;;;;;14.75;6.40;;;6.30;99.90;;;;;;5030900;28;20033;-80
2021/01/16 06:41:30;;;;;;;16.30;6.03;;;6.40;99.90;;;;;;5049904;28;20032;-82
2021/01/16 06:43:57;;;;;;;14.48;7.10;;;6.40;99.90;;;;;;5050744;28;20122;-81
2021/01/16 06:46:45;;;;;;;13.43;6.15;;;6.40;99.90;;;;;;5048761;28;20036;-81
2021/01/16 06:49:25;;;;;;;13.70;6.60;;;6.50;99.90;;;;;;5032163;28;20039;-81
2021/01/16 06:51:52;;;;;;;10.23;5.72;;;6.50;99.90;;;;;;5045551;28;20421;-82
2021/01/16 06:54:31;;;;;;;16.20;6.65;;;6.60;99.90;;;;;;5035506;28;20386;-82
2021/01/16 06:57:09;;;;;;;9.07;3.97;;;6.70;99.90;;;;;;5049729;28;20056;-81
2021/01/16 06:59:37;;;;;;;8.90;4.68;;;6.80;99.90;;;;;;5044901;28;20021;-80
2021/01/16 07:02:23;;;;;;;8.85;4.40;;;6.80;99.90;;;;;;5053211;28;20025;-80
2021/01/16 07:04:56;;;;;;;7.40;4.47;;;7.00;99.90;;;;;;5050647;28;20963;-78
2021/01/16 07:07:32;;;;;;;5.00;3.05;;;7.00;99.90;;;;;;5043175;28;20568;-79
2021/01/16 07:10:08;;;;;;;6.43;2.35;;;7.10;99.90;;;;;;5049663;28;20056;-81
2021/01/16 07:12:35;;;;;;;3.58;2.45;;;7.20;99.90;;;;;;5054245;28;20033;-80
2021/01/16 07:15:06;;;;;;;3.65;1.95;;;7.20;99.90;;;;;;5053591;28;20028;-81
2021/01/16 07:17:33;;;;;;;9.98;2.53;;;7.20;99.90;;;;;;5053563;28;20426;-79
2021/01/16 07:19:59;;;;;;;6.03;2.20;;;7.20;99.90;;;;;;5053450;28;20101;-79
2021/01/16 07:22:28;;;;;;;6.50;2.03;;;7.20;99.90;;;;;;5053892;28;20104;-80
2021/01/16 07:24:55;;;;;;;8.18;2.55;;;7.20;99.90;;;;;;5060190;28;20029;-82
2021/01/16 07:27:22;;;;;;;2.85;1.40;;;7.30;99.90;;;;;;5050734;28;20030;-81
2021/01/16 07:29:48;;;;;;;3.20;1.40;;;7.30;99.90;;;;;;5050757;28;20028;-81
2021/01/16 07:32:15;;;;;;;2.95;1.52;;;7.40;99.90;;;;;;5039078;28;20018;-81
2021/01/16 07:34:46;;;;;;;3.88;1.25;;;7.50;99.90;;;;;;5039953;28;20107;-83
2021/01/16 07:37:12;;;;;;;4.90;1.20;;;7.50;99.90;;;;;;5050689;28;20028;-82
2021/01/16 07:39:40;;;;;;;1.60;1.00;;;7.40;99.90;;;;;;5040221;28;20049;-80
2021/01/16 07:42:14;;;;;;;2.00;1.20;;;7.50;99.90;;;;;;5035770;28;20095;-82
2021/01/16 07:44:46;;;;;;;2.38;1.08;;;7.40;99.90;;;;;;5049599;28;20017;-82
2021/01/16 07:47:20;;;;;;;1.10;1.00;;;7.50;99.90;;;;;;5016429;28;20496;-76
2021/01/16 07:52:16;;;;;;;1.27;1.17;;;7.50;99.90;;;;;;5057305;28;20035;-82
2021/01/16 07:54:50;;;;;;;1.10;1.00;;;7.50;99.90;;;;;;5041722;28;20044;-82
2021/01/16 07:57:19;;;;;;;2.35;1.25;;;7.60;99.90;;;;;;5054667;28;20111;-81
2021/01/16 07:59:51;;;;;;;2.35;1.80;;;7.60;99.90;;;;;;5047144;28;20029;-80
2021/01/16 08:02:27;;;;;;;1.30;0.93;;;7.60;99.90;;;;;;5051521;28;20029;-77
2021/01/16 08:04:59;;;;;;;;;;;7.60;99.90;;;;;;5053578;28;20017;-77
2021/01/16 08:07:46;;;;;;;2.38;0.95;;;7.70;99.90;;;;;;5054974;28;20278;-79
2021/01/16 08:10:14;;;;;;;;;;;7.70;99.90;;;;;;5053348;28;20487;-80
2021/01/16 08:12:45;;;;;;;1.42;1.10;;;7.70;99.90;;;;;;5058179;28;19927;-77
2021/01/16 08:15:17;;;;;;;0.93;0.88;;;7.70;99.90;;;;;;5058038;28;20025;-77
2021/01/16 08:17:45;;;;;;;6.60;1.92;;;7.70;99.90;;;;;;5057046;28;20025;-81
2021/01/16 08:20:27;;;;;;;5.00;1.40;;;7.70;99.90;;;;;;5053311;28;20009;-82
2021/01/16 08:22:58;;;;;;;2.85;1.10;;;7.70;99.90;;;;;;5032524;28;20036;-81
2021/01/16 08:25:28;;;;;;;2.83;1.17;;;7.80;99.90;;;;;;5045931;28;20092;-81
2021/01/16 08:27:57;;;;;;;1.23;0.80;;;7.80;99.90;;;;;;5051332;28;20029;-80
2021/01/16 08:30:24;;;;;;;1.02;0.80;;;7.90;99.90;;;;;;5047564;28;20077;-79
2021/01/16 08:32:56;;;;;;;2.22;1.05;;;7.90;99.90;;;;;;5041835;28;20025;-81
2021/01/16 08:35:27;;;;;;;1.35;0.80;;;7.90;99.90;;;;;;5030406;28;20529;-79
2021/01/16 08:37:53;;;;;;;1.17;0.90;;;7.90;99.90;;;;;;5047794;28;20108;-81
2021/01/16 08:40:35;;;;;;;1.48;0.88;;;7.90;99.90;;;;;;5045500;28;20398;-81
2021/01/16 08:43:01;;;;;;;2.35;1.02;;;7.90;99.90;;;;;;5051072;28;20021;-82
2021/01/16 08:45:27;;;;;;;1.75;1.27;;;8.00;99.90;;;;;;5050482;28;20036;-81
2021/01/16 08:47:58;;;;;;;0.77;0.77;;;8.00;99.90;;;;;;5051248;28;20025;-80
2021/01/16 08:50:32;;;;;;;2.45;0.90;;;8.00;99.90;;;;;;5038490;28;20025;-78
2021/01/16 08:52:58;;;;;;;1.02;0.82;;;8.10;99.90;;;;;;5052238;28;20021;-81
2021/01/16 08:55:28;;;;;;;;;;;8.10;99.90;;;;;;5033753;28;20040;-79
2021/01/16 08:58:14;;;;;;;1.30;0.90;;;8.20;99.90;;;;;;5052202;28;20392;-81
2021/01/16 09:00:41;;;;;;;1.77;0.80;;;8.20;99.90;;;;;;5039068;28;20064;-81
2021/01/16 09:03:19;;;;;;;1.48;1.00;;;8.20;99.90;;;;;;5033588;28;20328;-80
2021/01/16 09:05:46;;;;;;;2.08;1.40;;;8.20;99.90;;;;;;5038735;28;20382;-81
2021/01/16 09:08:20;;;;;;;0.85;0.85;;;8.20;99.90;;;;;;5051685;28;20060;-81
2021/01/16 09:10:46;;;;;;;1.10;0.80;;;8.30;99.90;;;;;;5051084;28;20036;-80
2021/01/16 09:13:25;;;;;;;1.63;0.90;;;8.40;99.90;;;;;;5035286;28;20028;-78
2021/01/16 09:15:51;;;;;;;2.45;0.95;;;8.40;99.90;;;;;;5023353;28;20068;-81
2021/01/16 09:18:17;;;;;;;2.92;1.20;;;8.40;99.90;;;;;;5039164;28;20072;-79
2021/01/16 09:21:01;;;;;;;;;;;8.40;99.90;;;;;;5052492;28;20047;-81
2021/01/16 09:23:37;;;;;;;2.67;1.52;;;8.40;99.90;;;;;;5032098;28;19905;-81
2021/01/16 09:26:16;;;;;;;1.75;1.10;;;8.50;99.90;;;;;;5033757;28;20063;-81
2021/01/16 09:28:55;;;;;;;1.40;1.20;;;8.50;99.90;;;;;;5050421;28;20024;-80
2021/01/16 09:31:30;;;;;;;1.48;1.30;;;8.70;99.90;;;;;;5031489;28;20427;-81
2021/01/16 09:34:20;;;;;;;3.38;1.75;;;8.70;99.90;;;;;;5032335;28;20462;-80
2021/01/16 09:36:56;;;;;;;7.50;3.17;;;8.70;99.90;;;;;;5055602;28;20044;-81
2021/01/16 09:39:27;;;;;;;14.20;4.43;;;8.90;99.90;;;;;;5049983;28;20017;-78
2021/01/16 09:41:55;;;;;;;17.30;3.83;;;8.90;99.90;;;;;;5042165;28;20452;-83
2021/01/16 09:44:47;;;;;;;15.68;5.13;;;9.10;99.90;;;;;;5049626;28;20021;-81
2021/01/16 09:47:27;;;;;;;20.38;5.22;;;9.10;99.90;;;;;;5036096;28;20045;-78
2021/01/16 09:50:02;;;;;;;19.95;5.88;;;9.10;99.90;;;;;;5047748;28;20029;-78
2021/01/16 09:52:29;;;;;;;18.80;5.25;;;9.10;99.90;;;;;;5044925;28;20028;-79
2021/01/16 09:54:55;;;;;;;22.52;5.60;;;9.10;99.90;;;;;;5041957;28;21543;-79
2021/01/16 09:57:34;;;;;;;19.45;5.20;;;9.10;99.90;;;;;;5032584;28;20064;-79
2021/01/16 10:00:10;;;;;;;17.33;5.50;;;9.10;99.90;;;;;;5027814;28;20029;-79
2021/01/16 10:02:46;;;;;;;19.77;4.15;;;9.10;99.90;;;;;;5043979;28;20018;-81
2021/01/16 10:05:15;;;;;;;20.45;4.38;;;9.20;99.90;;;;;;5032091;28;20391;-79
2021/01/16 10:07:44;;;;;;;16.20;3.55;;;9.20;99.90;;;;;;5048011;28;20045;-79
2021/01/16 10:10:19;;;;;;;17.00;3.88;;;9.20;99.50;;;;;;5031394;28;20025;-80
2021/01/16 10:12:49;;;;;;;14.70;3.03;;;9.10;99.10;;;;;;5048439;28;20021;-80
2021/01/16 10:15:16;;;;;;;12.40;2.40;;;9.00;98.90;;;;;;5033933;28;20033;-81
2021/01/16 10:17:47;;;;;;;12.25;2.55;;;9.10;98.90;;;;;;5036224;28;20036;-80
2021/01/16 10:20:16;;;;;;;11.15;2.90;;;9.10;98.70;;;;;;5029306;28;20049;-81
2021/01/16 10:22:54;;;;;;;11.32;3.17;;;9.10;98.70;;;;;;5018648;28;20029;-80
2021/01/16 10:25:20;;;;;;;19.85;4.47;;;9.10;98.50;;;;;;5043835;28;20029;-81
2021/01/16 10:27:53;;;;;;;19.58;4.28;;;9.10;98.70;;;;;;5029370;28;20025;-81
2021/01/16 10:30:23;;;;;;;11.82;3.58;;;9.10;98.80;;;;;;5048733;28;20025;-80
2021/01/16 10:32:51;;;;;;;15.57;4.25;;;9.10;98.90;;;;;;5045434;28;20013;-80
2021/01/16 10:35:26;;;;;;;18.45;3.60;;;9.20;98.90;;;;;;5052865;28;20382;-80
2021/01/16 10:37:58;;;;;;;11.52;4.13;;;9.10;98.90;;;;;;5045826;28;20383;-80
2021/01/16 10:40:24;;;;;;;12.60;3.95;;;9.10;99.20;;;;;;5048417;28;20029;-78
2021/01/16 10:42:54;;;;;;;14.90;4.43;;;9.10;99.60;;;;;;5044977;28;20030;-79
2021/01/16 10:45:23;;;;;;;17.88;3.45;;;9.20;99.60;;;;;;5054316;28;20122;-79
2021/01/16 10:47:50;;;;;;;13.52;3.13;;;9.30;98.90;;;;;;5043799;28;20039;-77
2021/01/16 10:50:28;;;;;;;7.85;2.33;;;9.30;98.50;;;;;;5053820;28;20021;-78
2021/01/16 10:53:01;;;;;;;6.20;2.72;;;9.40;98.00;;;;;;5046862;28;20044;-78
2021/01/16 10:55:54;;;;;;;6.68;3.00;;;9.50;97.20;;;;;;5033579;28;20388;-81
2021/01/16 10:58:25;;;;;;;6.10;2.15;;;9.50;97.00;;;;;;5035655;28;20033;-79
2021/01/16 11:00:54;;;;;;;7.43;1.75;;;9.50;97.20;;;;;;5050637;28;20033;-80
2021/01/16 11:03:21;;;;;;;10.93;1.88;;;9.60;96.40;;;;;;5054116;28;20018;-80
2021/01/16 11:05:49;;;;;;;6.95;1.98;;;9.60;96.80;;;;;;5049906;28;20101;-79
2021/01/16 11:08:25;;;;;;;7.80;2.88;;;9.70;96.40;;;;;;5046409;28;20021;-79
2021/01/16 11:10:51;;;;;;;6.70;1.13;;;9.70;96.10;;;;;;5044953;28;20080;-80
2021/01/16 11:13:31;;;;;;;4.85;1.45;;;9.80;95.50;;;;;;5055149;28;20025;-80
2021/01/16 11:16:12;;;;;;;4.43;1.13;;;9.80;95.10;;;;;;5030472;28;20083;-82
2021/01/16 11:18:38;;;;;;;4.43;1.23;;;9.80;94.10;;;;;;5043403;28;20075;-80
2021/01/16 11:21:08;;;;;;;3.90;0.90;;;9.90;94.10;;;;;;5032243;28;20025;-78
2021/01/16 11:23:43;;;;;;;4.90;1.00;;;9.90;93.50;;;;;;5053437;28;20375;-79
2021/01/16 11:26:10;;;;;;;2.25;0.98;;;9.90;92.10;;;;;;5045606;28;20667;-79
2021/01/16 11:28:56;;;;;;;8.48;1.10;;;9.90;92.80;;;;;;5049206;28;20021;-80
2021/01/16 11:31:33;;;;;;;3.20;0.93;;;9.80;92.90;;;;;;5050643;28;20028;-79
2021/01/16 11:34:08;;;;;;;3.65;1.15;;;9.80;93.50;;;;;;5058091;28;20063;-79
2021/01/16 11:36:56;;;;;;;4.13;1.00;;;9.80;93.00;;;;;;5060757;28;20041;-80
2021/01/16 11:39:41;;;;;;;5.22;1.42;;;9.80;91.90;;;;;;5048414;28;20144;-83
2021/01/16 11:42:07;;;;;;;5.55;1.17;;;9.80;92.00;;;;;;5050770;28;20013;-79
2021/01/16 11:44:50;;;;;;;10.48;1.17;;;9.70;93.10;;;;;;5055998;28;20025;-81
2021/01/16 11:47:16;;;;;;;9.25;1.83;;;9.50;93.10;;;;;;5045531;28;20017;-79
2021/01/16 11:49:44;;;;;;;11.75;2.40;;;9.50;94.10;;;;;;5049207;28;20367;-79
2021/01/16 11:52:11;;;;;;;4.50;1.10;;;9.40;94.60;;;;;;5046962;28;20017;-79
2021/01/16 11:54:37;;;;;;;4.22;1.30;;;9.50;92.70;;;;;;5045696;28;20108;-79
2021/01/16 11:57:03;;;;;;;10.02;1.50;;;9.60;93.20;;;;;;5053603;28;20175;-80
2021/01/16 11:59:30;;;;;;;6.22;2.15;;;9.70;92.90;;;;;;5052912;28;20135;-80
2021/01/16 12:01:56;;;;;;;4.05;1.10;;;9.80;91.60;;;;;;5052876;28;20470;-80
2021/01/16 12:04:23;;;;;;;7.38;1.50;;;9.90;91.10;;;;;;5052563;28;20024;-77
2021/01/16 12:06:51;;;;;;;6.22;2.42;;;9.90;90.60;;;;;;5051807;28;20029;-81
2021/01/16 12:09:17;;;;;;;7.95;1.20;;;9.90;90.20;;;;;;5052295;28;20035;-80
2021/01/16 12:11:53;;;;;;;7.75;1.30;;;9.90;90.00;;;;;;5052397;28;20091;-80
2021/01/16 12:14:19;;;;;;;6.15;1.10;;;9.90;90.40;;;;;;5052302;28;20070;-79
2021/01/16 12:16:45;;;;;;;3.28;1.48;;;9.90;90.20;;;;;;5053079;28;20041;-77
2021/01/16 12:19:15;;;;;;;6.78;1.40;;;10.00;89.50;;;;;;5052234;28;20027;-78
2021/01/16 12:21:48;;;;;;;9.77;1.35;;;9.90;90.50;;;;;;5052560;28;20535;-81
2021/01/16 12:24:15;;;;;;;6.65;1.45;;;9.90;90.10;;;;;;5051903;28;20045;-80
2021/01/16 12:26:49;;;;;;;9.38;1.13;;;9.90;90.10;;;;;;5043423;28;20068;-80
2021/01/16 12:29:38;;;;;;;9.63;1.40;;;9.90;90.30;;;;;;5049480;28;20025;-79
2021/01/16 12:32:14;;;;;;;4.85;1.00;;;9.90;90.80;;;;;;5034737;28;20017;-79
2021/01/16 12:34:51;;;;;;;4.63;0.93;;;10.50;90.30;;;;;;5051899;28;20028;-78
2021/01/16 12:37:32;;;;;;;5.75;1.25;;;11.00;86.70;;;;;;5051432;28;20037;-79
2021/01/16 12:39:58;;;;;;;9.07;1.35;;;10.80;86.60;;;;;;5040569;28;20017;-78
2021/01/16 12:42:25;;;;;;;9.13;1.58;;;10.40;87.80;;;;;;5022596;28;20025;-81
2021/01/16 12:44:51;;;;;;;9.75;1.20;;;10.10;87.20;;;;;;5034531;28;20009;-81
2021/01/16 12:47:21;;;;;;;7.32;1.27;;;9.80;89.10;;;;;;5050772;28;20053;-80
2021/01/16 12:49:52;;;;;;;7.60;1.40;;;9.70;90.30;;;;;;5048569;28;20031;-80
2021/01/16 12:52:25;;;;;;;12.38;2.08;;;9.90;90.60;;;;;;5050357;28;20024;-77
2021/01/16 12:55:03;;;;;;;7.43;1.70;;;10.20;89.10;;;;;;5050488;28;20025;-79
2021/01/16 12:57:30;;;;;;;3.35;1.00;;;10.50;85.40;;;;;;5033841;28;20176;-77
2021/01/16 12:59:57;;;;;;;9.48;1.10;;;10.60;86.50;;;;;;5032422;28;20377;-78
2021/01/16 13:02:23;;;;;;;3.38;0.90;;;10.80;87.00;;;;;;5050372;28;20024;-79
2021/01/16 13:04:54;;;;;;;4.70;1.00;;;10.80;85.80;;;;;;5050188;28;20489;-78
2021/01/16 13:07:21;;;;;;;8.70;1.52;;;10.90;86.30;;;;;;5047061;28;20033;-79
2021/01/16 13:09:47;;;;;;;10.23;1.55;;;10.90;83.70;;;;;;5041143;28;20989;-78